WMT6018 LEBL-LIRF
Flight info
| Callsign | WMT6018 |
|---|---|
| Flight time | 1h 24m |
| Altitude | 34000 |
| Route | DIPES N725 OSPOK/N0444F370 DCT NOLVI DCT ORKUM/N0443F380 DCT ELSAG DCT ALG DCT ROMPO DCT RUXOP DCT BATOX DCT TINTO/N0384F180 L5 VALMA |
| Aircraft | A320/M-SDE3FGHIRWY/LB1 |
Departure
| Time | 2026-05-04 15:44 |
|---|---|
| Airport | Josep Tarradellas Barcelona-El Prat Airport (LEBL) |
Arrival
| Time | 2026-05-04 17:08 |
|---|---|
| Airport | Rome–Fiumicino Leonardo da Vinci International Airport (LIRF) |
| Time | Latitude | Longitude | Altitude | Speed | Heading |
|---|---|---|---|---|---|
| 2026-05-04 15:09 | 41.30229 | 2.07769 | 19 ft | 0 kts | 274° |
| 2026-05-04 15:25 | 41.30229 | 2.07779 | 20 ft | 2 kts | 272° |
| 2026-05-04 15:25 | 41.30227 | 2.07801 | 21 ft | 2 kts | 278° |
| 2026-05-04 15:25 | 41.30224 | 2.07823 | 22 ft | 2 kts | 287° |
| 2026-05-04 15:26 | 41.30207 | 2.07860 | 19 ft | 2 kts | 325° |
| 2026-05-04 15:26 | 41.30193 | 2.07871 | 18 ft | 2 kts | 335° |
| 2026-05-04 15:26 | 41.30163 | 2.07888 | 19 ft | 2 kts | 338° |
| 2026-05-04 15:27 | 41.30147 | 2.07896 | 19 ft | 2 kts | 321° |
| 2026-05-04 15:27 | 41.30139 | 2.07937 | 17 ft | 2 kts | 266° |
| 2026-05-04 15:28 | 41.30143 | 2.07980 | 20 ft | 2 kts | 255° |
| 2026-05-04 15:28 | 41.30146 | 2.07994 | 19 ft | 1 kts | 247° |
| 2026-05-04 15:28 | 41.30146 | 2.07995 | 19 ft | 0 kts | 245° |
| 2026-05-04 15:31 | 41.30096 | 2.07960 | 17 ft | 15 kts | 174° |
| 2026-05-04 15:31 | 41.29998 | 2.08020 | 19 ft | 16 kts | 153° |
| 2026-05-04 15:32 | 41.29623 | 2.08226 | 17 ft | 24 kts | 155° |
| 2026-05-04 15:32 | 41.29325 | 2.08404 | 14 ft | 23 kts | 154° |
| 2026-05-04 15:33 | 41.29013 | 2.08595 | 19 ft | 26 kts | 156° |
| 2026-05-04 15:34 | 41.28898 | 2.08827 | 17 ft | 0 kts | 67° |
| 2026-05-04 15:38 | 41.28900 | 2.08834 | 16 ft | 5 kts | 67° |
| 2026-05-04 15:38 | 41.28950 | 2.08980 | 18 ft | 28 kts | 65° |
| 2026-05-04 15:38 | 41.29030 | 2.09217 | 17 ft | 28 kts | 65° |
| 2026-05-04 15:38 | 41.29108 | 2.09442 | 21 ft | 26 kts | 65° |
| 2026-05-04 15:39 | 41.29182 | 2.09661 | 19 ft | 26 kts | 65° |
| 2026-05-04 15:39 | 41.29247 | 2.09847 | 16 ft | 19 kts | 64° |
| 2026-05-04 15:39 | 41.29259 | 2.10067 | 16 ft | 0 kts | 97° |
| 2026-05-04 15:42 | 41.29258 | 2.10073 | 14 ft | 5 kts | 103° |
| 2026-05-04 15:42 | 41.29237 | 2.10159 | 14 ft | 11 kts | 107° |
| 2026-05-04 15:42 | 41.29254 | 2.10251 | 14 ft | 10 kts | 78° |
| 2026-05-04 15:43 | 41.29214 | 2.10283 | 13 ft | 6 kts | 212° |
| 2026-05-04 15:43 | 41.29196 | 2.10247 | 14 ft | 4 kts | 243° |
| 2026-05-04 15:43 | 41.29142 | 2.10096 | 13 ft | 48 kts | 246° |
| 2026-05-04 15:43 | 41.28912 | 2.09423 | 15 ft | 109 kts | 245° |
| 2026-05-04 15:44 | 41.28529 | 2.08314 | 21 ft | 153 kts | 245° |
| 2026-05-04 15:44 | 41.28039 | 2.06990 | 483 ft | 161 kts | 233° |
| 2026-05-04 15:44 | 41.27122 | 2.06192 | 1123 ft | 163 kts | 191° |
| 2026-05-04 15:44 | 41.25993 | 2.06064 | 1775 ft | 166 kts | 181° |
| 2026-05-04 15:45 | 41.24776 | 2.06049 | 2151 ft | 187 kts | 181° |
| 2026-05-04 15:45 | 41.23398 | 2.06020 | 2460 ft | 209 kts | 182° |
| 2026-05-04 15:45 | 41.21920 | 2.05958 | 3167 ft | 214 kts | 183° |
| 2026-05-04 15:45 | 41.20424 | 2.05867 | 3994 ft | 215 kts | 184° |
| 2026-05-04 15:46 | 41.18929 | 2.05754 | 4831 ft | 217 kts | 185° |
| 2026-05-04 15:46 | 41.17414 | 2.05623 | 5761 ft | 220 kts | 185° |
| 2026-05-04 15:46 | 41.15822 | 2.05529 | 6579 ft | 234 kts | 184° |
| 2026-05-04 15:46 | 41.14163 | 2.05463 | 7631 ft | 240 kts | 184° |
| 2026-05-04 15:47 | 41.12494 | 2.05401 | 8802 ft | 242 kts | 184° |
| 2026-05-04 15:47 | 41.10793 | 2.05335 | 9987 ft | 246 kts | 185° |
| 2026-05-04 15:47 | 41.09074 | 2.05264 | 11083 ft | 249 kts | 186° |
| 2026-05-04 15:47 | 41.07334 | 2.05191 | 12174 ft | 252 kts | 186° |
| 2026-05-04 15:48 | 41.05574 | 2.05113 | 13155 ft | 254 kts | 186° |
| 2026-05-04 15:48 | 41.03819 | 2.05032 | 13956 ft | 257 kts | 186° |
| 2026-05-04 15:48 | 41.00193 | 2.05419 | 15271 ft | 274 kts | 163° |
| 2026-05-04 15:49 | 40.98534 | 2.06807 | 15649 ft | 300 kts | 141° |
| 2026-05-04 15:49 | 40.97177 | 2.09089 | 15773 ft | 328 kts | 130° |
| 2026-05-04 15:49 | 40.95825 | 2.11630 | 15926 ft | 351 kts | 130° |
| 2026-05-04 15:49 | 40.94371 | 2.14373 | 16071 ft | 373 kts | 130° |
| 2026-05-04 15:50 | 40.92772 | 2.17157 | 16258 ft | 388 kts | 131° |
| 2026-05-04 15:50 | 40.91176 | 2.20076 | 16738 ft | 395 kts | 129° |
| 2026-05-04 15:50 | 40.89616 | 2.23114 | 17303 ft | 402 kts | 125° |
| 2026-05-04 15:50 | 40.88470 | 2.26531 | 17860 ft | 413 kts | 110° |
| 2026-05-04 15:51 | 40.87941 | 2.30299 | 18390 ft | 423 kts | 96° |
| 2026-05-04 15:51 | 40.88069 | 2.34219 | 18775 ft | 431 kts | 82° |
| 2026-05-04 15:51 | 40.88924 | 2.38025 | 19009 ft | 436 kts | 66° |
| 2026-05-04 15:51 | 40.90226 | 2.41658 | 19520 ft | 440 kts | 65° |
| 2026-05-04 15:52 | 40.91543 | 2.45336 | 20031 ft | 444 kts | 65° |
| 2026-05-04 15:52 | 40.92853 | 2.49034 | 20531 ft | 448 kts | 66° |
| 2026-05-04 15:52 | 40.94176 | 2.52794 | 20983 ft | 451 kts | 66° |
| 2026-05-04 15:52 | 40.95500 | 2.56565 | 21438 ft | 455 kts | 66° |
| 2026-05-04 15:53 | 40.96850 | 2.60407 | 21898 ft | 459 kts | 66° |
| 2026-05-04 15:53 | 40.98205 | 2.64262 | 22347 ft | 463 kts | 66° |
| 2026-05-04 15:53 | 40.99567 | 2.68137 | 22780 ft | 467 kts | 66° |
| 2026-05-04 15:53 | 41.00928 | 2.72010 | 23212 ft | 471 kts | 66° |
| 2026-05-04 15:54 | 41.02309 | 2.75945 | 23604 ft | 474 kts | 66° |
| 2026-05-04 15:54 | 41.03695 | 2.79912 | 23957 ft | 477 kts | 66° |
| 2026-05-04 15:54 | 41.05098 | 2.83937 | 24331 ft | 480 kts | 66° |
| 2026-05-04 15:54 | 41.06501 | 2.87969 | 24691 ft | 483 kts | 66° |
| 2026-05-04 15:55 | 41.07907 | 2.92021 | 25052 ft | 486 kts | 66° |
| 2026-05-04 15:55 | 41.09163 | 2.96178 | 25387 ft | 487 kts | 74° |
| 2026-05-04 15:55 | 41.09977 | 3.00538 | 25737 ft | 487 kts | 83° |
| 2026-05-04 15:55 | 41.10322 | 3.04993 | 26102 ft | 485 kts | 92° |
| 2026-05-04 15:56 | 41.10199 | 3.09450 | 26469 ft | 483 kts | 101° |
| 2026-05-04 15:56 | 41.09810 | 3.13860 | 26827 ft | 485 kts | 101° |
| 2026-05-04 15:56 | 41.09418 | 3.18338 | 27196 ft | 487 kts | 101° |
| 2026-05-04 15:56 | 41.09032 | 3.22809 | 27559 ft | 490 kts | 101° |
| 2026-05-04 15:57 | 41.08646 | 3.27305 | 27898 ft | 492 kts | 101° |
| 2026-05-04 15:57 | 41.08257 | 3.31816 | 28245 ft | 495 kts | 101° |
| 2026-05-04 15:57 | 41.07861 | 3.36358 | 28698 ft | 495 kts | 102° |
| 2026-05-04 15:57 | 41.07465 | 3.40894 | 29207 ft | 494 kts | 102° |
| 2026-05-04 15:58 | 41.07068 | 3.45403 | 29734 ft | 493 kts | 102° |
| 2026-05-04 15:58 | 41.06665 | 3.49904 | 30202 ft | 492 kts | 102° |
| 2026-05-04 15:58 | 41.06213 | 3.54340 | 30623 ft | 488 kts | 107° |
| 2026-05-04 15:58 | 41.05474 | 3.58704 | 31037 ft | 485 kts | 110° |
| 2026-05-04 15:59 | 41.04700 | 3.63048 | 31472 ft | 484 kts | 110° |
| 2026-05-04 15:59 | 41.03921 | 3.67395 | 31912 ft | 484 kts | 110° |
| 2026-05-04 15:59 | 41.03140 | 3.71727 | 32350 ft | 483 kts | 110° |
| 2026-05-04 15:59 | 41.02363 | 3.76042 | 32775 ft | 482 kts | 110° |
| 2026-05-04 16:00 | 41.01583 | 3.80369 | 33233 ft | 482 kts | 111° |
| 2026-05-04 16:00 | 41.00804 | 3.84680 | 33669 ft | 481 kts | 111° |
| 2026-05-04 16:00 | 41.00023 | 3.89006 | 33882 ft | 482 kts | 111° |
| 2026-05-04 16:00 | 40.99234 | 3.93357 | 33933 ft | 489 kts | 111° |
| 2026-05-04 16:01 | 40.97636 | 4.02139 | 33928 ft | 490 kts | 111° |
| 2026-05-04 16:01 | 40.96050 | 4.10848 | 33930 ft | 490 kts | 111° |
| 2026-05-04 16:02 | 40.94435 | 4.19669 | 33932 ft | 491 kts | 111° |
| 2026-05-04 16:03 | 40.92002 | 4.32836 | 33932 ft | 491 kts | 111° |
| 2026-05-04 16:03 | 40.90379 | 4.41532 | 33932 ft | 491 kts | 111° |
| 2026-05-04 16:04 | 40.88745 | 4.50311 | 33936 ft | 492 kts | 111° |
| 2026-05-04 16:04 | 40.86292 | 4.63496 | 33924 ft | 493 kts | 111° |
| 2026-05-04 16:05 | 40.85284 | 4.71047 | 33929 ft | 501 kts | 103° |
| 2026-05-04 16:06 | 40.84035 | 4.84737 | 33942 ft | 501 kts | 103° |
| 2026-05-04 16:07 | 40.82429 | 5.01805 | 33950 ft | 500 kts | 103° |
| 2026-05-04 16:08 | 40.80694 | 5.20000 | 33953 ft | 499 kts | 103° |
| 2026-05-04 16:09 | 40.78493 | 5.42705 | 33960 ft | 498 kts | 103° |
| 2026-05-04 16:10 | 40.76701 | 5.60804 | 33968 ft | 497 kts | 103° |
| 2026-05-04 16:11 | 40.74891 | 5.78818 | 33972 ft | 497 kts | 103° |
| 2026-05-04 16:12 | 40.72107 | 6.05868 | 33966 ft | 500 kts | 103° |
| 2026-05-04 16:13 | 40.70189 | 6.24196 | 33980 ft | 504 kts | 103° |
| 2026-05-04 16:14 | 40.68248 | 6.42482 | 33978 ft | 504 kts | 103° |
| 2026-05-04 16:16 | 40.65756 | 6.65372 | 33979 ft | 505 kts | 102° |
| 2026-05-04 16:17 | 40.63245 | 6.88223 | 33987 ft | 506 kts | 102° |
| 2026-05-04 16:18 | 40.61195 | 7.06522 | 33995 ft | 505 kts | 102° |
| 2026-05-04 16:19 | 40.58579 | 7.29382 | 34003 ft | 505 kts | 102° |
| 2026-05-04 16:20 | 40.56746 | 7.52343 | 34003 ft | 511 kts | 85° |
| 2026-05-04 16:22 | 40.58759 | 7.75596 | 34016 ft | 512 kts | 85° |
| 2026-05-04 16:23 | 40.61099 | 8.03512 | 34025 ft | 511 kts | 85° |
| 2026-05-04 16:25 | 40.64869 | 8.30885 | 34032 ft | 510 kts | 66° |
| 2026-05-04 16:26 | 40.74361 | 8.61040 | 34044 ft | 509 kts | 66° |
| 2026-05-04 16:28 | 40.81094 | 8.82629 | 34049 ft | 509 kts | 66° |
| 2026-05-04 16:29 | 40.90456 | 9.12985 | 34048 ft | 510 kts | 66° |
| 2026-05-04 16:31 | 40.97112 | 9.34766 | 34043 ft | 511 kts | 66° |
| 2026-05-04 16:32 | 41.05044 | 9.60937 | 34049 ft | 511 kts | 66° |
| 2026-05-04 16:33 | 41.10298 | 9.78445 | 34056 ft | 511 kts | 66° |
| 2026-05-04 16:34 | 41.14185 | 9.91619 | 34071 ft | 511 kts | 66° |
| 2026-05-04 16:35 | 41.21973 | 10.17986 | 34079 ft | 511 kts | 66° |
| 2026-05-04 16:36 | 41.25853 | 10.31128 | 34088 ft | 510 kts | 66° |
| 2026-05-04 16:37 | 41.29715 | 10.44279 | 34092 ft | 509 kts | 66° |
| 2026-05-04 16:38 | 41.34853 | 10.61847 | 34099 ft | 508 kts | 66° |
| 2026-05-04 16:39 | 41.38674 | 10.75016 | 33367 ft | 507 kts | 66° |
| 2026-05-04 16:39 | 41.41205 | 10.83785 | 30633 ft | 505 kts | 66° |
| 2026-05-04 16:40 | 41.43693 | 10.92432 | 27820 ft | 496 kts | 67° |
| 2026-05-04 16:40 | 41.46107 | 11.00852 | 25440 ft | 477 kts | 68° |
| 2026-05-04 16:41 | 41.48399 | 11.08887 | 23994 ft | 456 kts | 68° |
| 2026-05-04 16:41 | 41.51546 | 11.20042 | 22425 ft | 411 kts | 68° |
| 2026-05-04 16:42 | 41.54611 | 11.31000 | 20163 ft | 417 kts | 69° |
| 2026-05-04 16:43 | 41.56558 | 11.37988 | 19820 ft | 384 kts | 69° |
| 2026-05-04 16:43 | 41.58365 | 11.44454 | 19098 ft | 371 kts | 69° |
| 2026-05-04 16:43 | 41.59279 | 11.47696 | 18823 ft | 370 kts | 69° |
| 2026-05-04 16:44 | 41.62749 | 11.59941 | 17117 ft | 336 kts | 69° |
| 2026-05-04 16:45 | 41.64399 | 11.65807 | 15846 ft | 336 kts | 69° |
| 2026-05-04 16:46 | 41.66816 | 11.74460 | 13911 ft | 327 kts | 69° |
| 2026-05-04 16:46 | 41.68394 | 11.80106 | 12503 ft | 321 kts | 69° |
| 2026-05-04 16:47 | 41.69937 | 11.85641 | 11274 ft | 311 kts | 69° |
| 2026-05-04 16:47 | 41.71390 | 11.90881 | 11131 ft | 300 kts | 69° |
| 2026-05-04 16:48 | 41.73316 | 11.97848 | 11129 ft | 300 kts | 68° |
| 2026-05-04 16:48 | 41.74898 | 12.00706 | 11133 ft | 282 kts | 34° |
| 2026-05-04 16:49 | 41.78521 | 12.01675 | 11132 ft | 272 kts | 345° |
| 2026-05-04 16:49 | 41.81554 | 12.00427 | 11217 ft | 272 kts | 341° |
| 2026-05-04 16:50 | 41.85167 | 11.98896 | 11223 ft | 272 kts | 342° |
| 2026-05-04 16:50 | 41.88755 | 11.97368 | 11228 ft | 272 kts | 341° |
| 2026-05-04 16:51 | 41.92360 | 11.95839 | 11228 ft | 273 kts | 341° |
| 2026-05-04 16:51 | 41.94172 | 11.95072 | 11043 ft | 273 kts | 342° |
| 2026-05-04 16:51 | 41.97773 | 11.93542 | 10558 ft | 269 kts | 342° |
| 2026-05-04 16:52 | 42.01333 | 11.92026 | 10204 ft | 268 kts | 342° |
| 2026-05-04 16:52 | 42.03108 | 11.91273 | 10204 ft | 268 kts | 342° |
| 2026-05-04 16:53 | 42.06675 | 11.89759 | 10191 ft | 269 kts | 342° |
| 2026-05-04 16:53 | 42.12021 | 11.87478 | 9906 ft | 268 kts | 342° |
| 2026-05-04 16:54 | 42.13785 | 11.86720 | 9773 ft | 264 kts | 342° |
| 2026-05-04 16:55 | 42.20595 | 11.83806 | 9223 ft | 255 kts | 342° |
| 2026-05-04 16:55 | 42.23974 | 11.82357 | 9127 ft | 255 kts | 342° |
| 2026-05-04 16:56 | 42.27360 | 11.80903 | 9133 ft | 255 kts | 342° |
| 2026-05-04 16:56 | 42.32327 | 11.81279 | 9134 ft | 254 kts | 47° |
| 2026-05-04 16:57 | 42.33200 | 11.83326 | 9136 ft | 254 kts | 73° |
| 2026-05-04 16:57 | 42.34254 | 11.87854 | 9138 ft | 254 kts | 73° |
| 2026-05-04 16:58 | 42.33847 | 11.94517 | 8509 ft | 265 kts | 142° |
| 2026-05-04 16:58 | 42.32175 | 11.95674 | 7788 ft | 270 kts | 160° |
| 2026-05-04 16:59 | 42.28566 | 11.97146 | 6618 ft | 269 kts | 164° |
| 2026-05-04 17:00 | 42.22076 | 11.99673 | 6016 ft | 227 kts | 162° |
| 2026-05-04 17:00 | 42.17559 | 12.01580 | 6052 ft | 226 kts | 161° |
| 2026-05-04 17:01 | 42.14556 | 12.02858 | 6063 ft | 227 kts | 161° |
| 2026-05-04 17:01 | 42.11653 | 12.04454 | 6076 ft | 225 kts | 142° |
| 2026-05-04 17:02 | 42.09469 | 12.07482 | 6084 ft | 225 kts | 132° |
| 2026-05-04 17:02 | 42.07330 | 12.10614 | 5660 ft | 223 kts | 132° |
| 2026-05-04 17:03 | 42.06281 | 12.12142 | 5667 ft | 222 kts | 132° |
| 2026-05-04 17:03 | 42.05229 | 12.13678 | 5409 ft | 226 kts | 131° |
| 2026-05-04 17:03 | 42.03066 | 12.16847 | 4540 ft | 234 kts | 132° |
| 2026-05-04 17:04 | 42.00698 | 12.19424 | 4211 ft | 220 kts | 160° |
| 2026-05-04 17:04 | 41.97713 | 12.20647 | 3028 ft | 230 kts | 163° |
| 2026-05-04 17:05 | 41.94636 | 12.21935 | 2212 ft | 225 kts | 164° |
| 2026-05-04 17:05 | 41.91918 | 12.23080 | 1677 ft | 185 kts | 165° |
| 2026-05-04 17:06 | 41.89686 | 12.24017 | 1205 ft | 153 kts | 166° |
| 2026-05-04 17:06 | 41.88716 | 12.24423 | 907 ft | 137 kts | 166° |
| 2026-05-04 17:07 | 41.86950 | 12.25179 | 559 ft | 129 kts | 163° |
| 2026-05-04 17:07 | 41.86363 | 12.25422 | 403 ft | 132 kts | 166° |
| 2026-05-04 17:07 | 41.85221 | 12.25895 | 208 ft | 127 kts | 164° |
| 2026-05-04 17:07 | 41.84363 | 12.26251 | 48 ft | 126 kts | 164° |
| 2026-05-04 17:08 | 41.83608 | 12.26564 | 22 ft | 99 kts | 163° |
| 2026-05-04 17:08 | 41.82812 | 12.26873 | 24 ft | 30 kts | 169° |
| 2026-05-04 17:08 | 41.82618 | 12.26847 | 20 ft | 29 kts | 194° |
| 2026-05-04 17:09 | 41.82431 | 12.26790 | 17 ft | 16 kts | 192° |
| 2026-05-04 17:09 | 41.82311 | 12.26788 | 17 ft | 19 kts | 166° |
| 2026-05-04 17:09 | 41.82175 | 12.26840 | 15 ft | 22 kts | 161° |
| 2026-05-04 17:10 | 41.81944 | 12.26935 | 16 ft | 18 kts | 164° |
| 2026-05-04 17:10 | 41.81523 | 12.27111 | 24 ft | 24 kts | 161° |
| 2026-05-04 17:11 | 41.81360 | 12.27184 | 19 ft | 27 kts | 162° |
| 2026-05-04 17:11 | 41.81192 | 12.27255 | 16 ft | 20 kts | 163° |
| 2026-05-04 17:11 | 41.80878 | 12.27344 | 15 ft | 26 kts | 186° |
| 2026-05-04 17:12 | 41.80723 | 12.27307 | 14 ft | 22 kts | 198° |
| 2026-05-04 17:12 | 41.80573 | 12.26931 | 16 ft | 26 kts | 250° |
| 2026-05-04 17:13 | 41.80410 | 12.26336 | 16 ft | 22 kts | 250° |
| 2026-05-04 17:14 | 41.80221 | 12.25659 | 16 ft | 29 kts | 250° |
| 2026-05-04 17:14 | 41.80156 | 12.25419 | 22 ft | 25 kts | 249° |
| 2026-05-04 17:14 | 41.80039 | 12.25172 | 18 ft | 12 kts | 204° |
| 2026-05-04 17:15 | 41.79946 | 12.25115 | 16 ft | 16 kts | 205° |
| 2026-05-04 17:15 | 41.79774 | 12.24998 | 16 ft | 9 kts | 230° |
| 2026-05-04 17:16 | 41.79730 | 12.24849 | 16 ft | 7 kts | 252° |
| 2026-05-04 17:16 | 41.79725 | 12.24831 | 18 ft | 0 kts | 251° |